Time;durP1;ratioP1;P1;durP2;ratioP2;P2;SDS_P1;SDS_P2;PMS_P1;PMS_P2;Temp;Humidity;BMP_temperature;BMP_pressure;BME280_temperature;BME280_humidity;BME280_pressure;Samples;Min_cycle;Max_cycle;Signal;HPM_P1;HPM_P2
2021/08/18 00:02:03;;;;;;;;;;;;;;;21.59;52.25;99965.88;5093266;28;20360;-59
2021/08/18 00:04:33;;;;;;;;;;;;;;;21.58;52.23;99970.41;5104822;28;20023;-62
2021/08/18 00:07:02;;;;;;;;;;;;;;;21.56;52.34;99961.59;5102917;28;19936;-62
2021/08/18 00:09:29;;;;;;;;;;;;;;;21.58;52.43;99956.97;5110515;28;19928;-61
2021/08/18 00:11:57;;;;;;;;;;;;;;;21.57;52.83;99955.25;5108334;28;19924;-61
2021/08/18 00:14:25;;;;;;;;;;;;;;;21.57;52.32;99954.41;5111631;28;20146;-61
2021/08/18 00:16:54;;;;;;;;;;;;;;;21.57;52.55;99957.09;5098764;28;19928;-62
2021/08/18 00:19:22;;;;;;;;;;;;;;;21.56;52.63;99942.78;5104276;28;19928;-61
2021/08/18 00:21:51;;;;;;;;;;;;;;;21.55;52.61;99954.50;5105971;28;19959;-62
2021/08/18 00:24:19;;;;;;;;;;;;;;;21.55;52.40;99951.81;5107701;28;19928;-62
2021/08/18 00:26:47;;;;;;;;;;;;;;;21.53;52.38;99941.16;5104420;28;19928;-60
2021/08/18 00:29:21;;;;;;;;;;;;;;;21.53;52.65;99948.41;5108396;27;19924;-62
2021/08/18 00:31:49;;;;;;;;;;;;;;;21.52;52.53;99944.88;5105398;28;19935;-62
2021/08/18 00:34:17;;;;;;;;;;;;;;;21.53;52.44;99945.72;5102954;28;19991;-62
2021/08/18 00:36:45;;;;;;;;;;;;;;;21.52;52.52;99944.88;5107725;28;19959;-60
2021/08/18 00:39:15;;;;;;;;;;;;;;;21.52;52.52;99936.78;5104039;28;19935;-61
2021/08/18 00:41:43;;;;;;;;;;;;;;;21.52;52.51;99925.16;5109258;28;19946;-62
2021/08/18 00:44:11;;;;;;;;;;;;;;;21.52;52.50;99938.63;5099888;28;19976;-61
2021/08/18 00:46:48;;;;;;;;;;;;;;;21.51;52.51;99937.78;5100497;28;20464;-60
2021/08/18 00:49:18;;;;;;;;;;;;;;;21.50;52.33;99944.13;5104584;28;19928;-61
2021/08/18 00:51:46;;;;;;;;;;;;;;;21.51;52.60;99928.84;5102185;28;19934;-57
2021/08/18 00:54:16;;;;;;;;;;;;;;;21.50;52.29;99937.91;5107270;28;19977;-63
2021/08/18 00:56:44;;;;;;;;;;;;;;;21.52;52.82;99938.63;5106099;28;19943;-59
2021/08/18 00:59:13;;;;;;;;;;;;;;;21.49;52.55;99939.72;5100546;28;19925;-62
2021/08/18 01:01:41;;;;;;;;;;;;;;;21.49;52.56;99937.03;5102242;28;19945;-62
2021/08/18 01:04:10;;;;;;;;;;;;;;;21.49;52.73;99937.03;5110128;28;19969;-62
2021/08/18 01:06:40;;;;;;;;;;;;;;;21.49;52.74;99934.34;5112347;28;19924;-62
2021/08/18 01:09:09;;;;;;;;;;;;;;;21.49;52.55;99936.19;5105885;28;19928;-61
2021/08/18 01:11:40;;;;;;;;;;;;;;;21.48;52.41;99939.88;5104384;28;20361;-62
2021/08/18 01:14:08;;;;;;;;;;;;;;;21.47;52.63;99941.72;5104379;28;20229;-62
2021/08/18 01:16:36;;;;;;;;;;;;;;;21.48;52.56;99942.56;5107029;28;19988;-62
2021/08/18 01:19:05;;;;;;;;;;;;;;;21.47;52.68;99938.16;5106474;28;19928;-58
2021/08/18 01:21:34;;;;;;;;;;;;;;;21.46;52.63;99950.75;5102739;28;19927;-58
2021/08/18 01:24:03;;;;;;;;;;;;;;;21.47;52.67;99946.22;5104038;28;19928;-62
2021/08/18 01:26:31;;;;;;;;;;;;;;;21.45;52.45;99949.06;5097397;28;19943;-61
2021/08/18 01:29:01;;;;;;;;;;;;;;;21.45;52.84;99935.59;5096005;28;19932;-62
2021/08/18 01:31:29;;;;;;;;;;;;;;;21.46;52.42;99941.81;5103587;28;19928;-62
2021/08/18 01:33:59;;;;;;;;;;;;;;;21.45;52.59;99946.38;5103016;28;19927;-61
2021/08/18 01:36:27;;;;;;;;;;;;;;;21.45;52.68;99940.16;5105536;28;19928;-61
2021/08/18 01:38:59;;;;;;;;;;;;;;;21.45;52.67;99938.28;5106139;28;20796;-61
2021/08/18 01:41:28;;;;;;;;;;;;;;;21.44;52.69;99933.06;5103829;28;20860;-61
2021/08/18 01:43:55;;;;;;;;;;;;;;;21.44;52.86;99933.88;5102767;28;19984;-61
2021/08/18 01:46:26;;;;;;;;;;;;;;;21.44;52.45;99941.97;5106243;28;19924;-61
2021/08/18 01:48:55;;;;;;;;;;;;;;;21.43;52.79;99940.25;5100920;28;19928;-62
2021/08/18 01:51:23;;;;;;;;;;;;;;;21.43;53.27;99944.78;5100357;28;19955;-57
2021/08/18 01:53:51;;;;;;;;;;;;;;;21.41;52.69;99934.16;5097613;28;19936;-59
2021/08/18 01:56:19;;;;;;;;;;;;;;;21.41;52.48;99942.22;5095209;28;19927;-57
2021/08/18 01:58:49;;;;;;;;;;;;;;;21.40;52.43;99941.38;5100701;28;19989;-60
2021/08/18 02:01:18;;;;;;;;;;;;;;;21.40;52.47;99933.28;5101903;28;19935;-62
2021/08/18 02:03:50;;;;;;;;;;;;;;;21.40;53.17;99924.38;5110434;28;19951;-59
2021/08/18 02:06:18;;;;;;;;;;;;;;;21.40;52.95;99927.91;5110642;28;19932;-60
2021/08/18 02:08:46;;;;;;;;;;;;;;;21.39;52.96;99928.91;5098331;28;19932;-58
2021/08/18 02:11:14;;;;;;;;;;;;;;;21.40;53.13;99930.59;5101898;27;19987;-58
2021/08/18 02:13:44;;;;;;;;;;;;;;;21.38;52.89;99929.91;5108185;28;19988;-62
2021/08/18 02:16:12;;;;;;;;;;;;;;;21.39;52.71;99928.06;5102408;28;20044;-62
2021/08/18 02:18:40;;;;;;;;;;;;;;;21.39;52.70;99930.75;5105329;28;20366;-61
2021/08/18 02:21:10;;;;;;;;;;;;;;;21.39;52.80;99934.31;5098607;28;19932;-62
2021/08/18 02:23:37;;;;;;;;;;;;;;;21.39;52.52;99937.00;5096578;28;19928;-62
2021/08/18 02:26:06;;;;;;;;;;;;;;;21.39;52.91;99946.88;5103849;28;19932;-57
2021/08/18 02:28:33;;;;;;;;;;;;;;;21.38;53.13;99942.50;5104237;28;20000;-56
2021/08/18 02:31:01;;;;;;;;;;;;;;;21.38;53.32;99937.13;5101639;28;19972;-62
2021/08/18 02:33:29;;;;;;;;;;;;;;;21.37;53.32;99940.78;5113243;28;20500;-61
2021/08/18 02:35:57;;;;;;;;;;;;;;;21.38;52.76;99937.13;5100783;28;19955;-60
2021/08/18 02:38:26;;;;;;;;;;;;;;;21.36;53.04;99942.63;5098230;28;19931;-62
2021/08/18 02:40:54;;;;;;;;;;;;;;;21.35;52.71;99946.31;5106133;28;19927;-61
2021/08/18 02:43:22;;;;;;;;;;;;;;;21.36;52.98;99949.84;5102954;28;19935;-61
2021/08/18 02:45:51;;;;;;;;;;;;;;;21.35;52.72;99959.75;5099034;28;19928;-60
2021/08/18 02:48:19;;;;;;;;;;;;;;;21.35;52.90;99950.81;5105235;28;19924;-61
2021/08/18 02:50:47;;;;;;;;;;;;;;;21.35;53.23;99951.69;5109133;28;19924;-61
2021/08/18 02:53:14;;;;;;;;;;;;;;;21.35;53.26;99959.75;5095003;28;19923;-63
2021/08/18 02:55:44;;;;;;;;;;;;;;;21.34;53.34;99947.28;5097004;28;20351;-60
2021/08/18 02:58:12;;;;;;;;;;;;;;;21.34;53.03;99949.09;5102168;28;19938;-60
2021/08/18 03:00:40;;;;;;;;;;;;;;;21.34;52.84;99951.78;5105220;28;19935;-53
2021/08/18 03:03:08;;;;;;;;;;;;;;;21.34;52.94;99958.06;5101584;28;19977;-62
2021/08/18 03:05:37;;;;;;;;;;;;;;;21.33;53.46;99956.34;5100270;28;19924;-54
2021/08/18 03:08:05;;;;;;;;;;;;;;;21.33;52.79;99950.97;5103858;28;19991;-62
2021/08/18 03:10:33;;;;;;;;;;;;;;;21.32;52.82;99961.84;5107037;28;19928;-62
2021/08/18 03:13:02;;;;;;;;;;;;;;;21.32;52.75;99954.63;5112273;28;19924;-56
2021/08/18 03:15:30;;;;;;;;;;;;;;;21.31;52.64;99958.28;5102471;28;19939;-62
2021/08/18 03:17:58;;;;;;;;;;;;;;;21.32;52.95;99967.22;5109927;28;19924;-62
2021/08/18 03:20:26;;;;;;;;;;;;;;;21.32;53.08;99969.94;5109572;28;19924;-62
2021/08/18 03:22:55;;;;;;;;;;;;;;;21.31;52.87;99963.66;5103388;28;20020;-58
2021/08/18 03:25:23;;;;;;;;;;;;;;;21.30;53.08;99975.44;5112385;28;20382;-61
2021/08/18 03:27:51;;;;;;;;;;;;;;;21.31;53.11;99969.06;5106656;28;19928;-62
2021/08/18 03:30:20;;;;;;;;;;;;;;;21.31;52.78;99978.97;5107056;28;19947;-61
2021/08/18 03:32:48;;;;;;;;;;;;;;;21.29;52.99;99978.22;5098827;28;19928;-62
2021/08/18 03:35:17;;;;;;;;;;;;;;;21.29;53.08;99984.47;5107988;28;19938;-61
2021/08/18 03:37:44;;;;;;;;;;;;;;;21.29;53.08;99986.31;5112474;27;20183;-61
2021/08/18 03:40:13;;;;;;;;;;;;;;;21.30;53.10;99990.69;5104690;28;19934;-61
2021/08/18 03:42:41;;;;;;;;;;;;;;;21.29;53.21;99981.78;5107036;28;20010;-62
2021/08/18 03:45:10;;;;;;;;;;;;;;;21.30;53.23;99988.00;5103010;28;19957;-61
2021/08/18 03:47:39;;;;;;;;;;;;;;;21.28;53.28;99985.47;5109290;28;19924;-61
2021/08/18 03:50:07;;;;;;;;;;;;;;;21.28;53.51;99988.16;5106943;28;19935;-62
2021/08/18 03:52:37;;;;;;;;;;;;;;;21.29;53.41;99989.00;5112530;28;19935;-63
2021/08/18 03:55:06;;;;;;;;;;;;;;;21.28;53.28;99996.22;5109519;28;19934;-63
2021/08/18 03:57:34;;;;;;;;;;;;;;;21.28;53.00;100000.75;5111560;28;19991;-60
2021/08/18 04:00:02;;;;;;;;;;;;;;;21.28;53.03;99998.06;5100524;28;19978;-63
2021/08/18 04:02:31;;;;;;;;;;;;;;;21.28;52.91;99992.69;5101156;28;20395;-62
2021/08/18 04:05:01;;;;;;;;;;;;;;;21.27;53.14;100004.41;5111283;28;20019;-62
2021/08/18 04:07:29;;;;;;;;;;;;;;;21.27;53.38;99999.88;5106762;28;19942;-63
2021/08/18 04:09:57;;;;;;;;;;;;;;;21.27;53.49;100009.81;5104239;28;20407;-63
2021/08/18 04:12:25;;;;;;;;;;;;;;;21.27;53.81;100007.13;5109147;27;19928;-62
2021/08/18 04:14:53;;;;;;;;;;;;;;;21.26;53.32;100003.56;5102852;28;19939;-61
2021/08/18 04:17:21;;;;;;;;;;;;;;;21.26;53.19;100008.94;5102248;28;19924;-61
2021/08/18 04:19:50;;;;;;;;;;;;;;;21.26;53.15;100008.09;5104397;28;20021;-56
2021/08/18 04:22:19;;;;;;;;;;;;;;;21.27;52.95;100015.19;5107993;28;19952;-59
2021/08/18 04:24:48;;;;;;;;;;;;;;;21.26;53.01;100008.94;5107453;28;19924;-60
2021/08/18 04:27:16;;;;;;;;;;;;;;;21.26;53.28;100018.84;5104988;28;20614;-61
2021/08/18 04:29:44;;;;;;;;;;;;;;;21.25;53.37;100011.75;5098156;28;19927;-61
2021/08/18 04:32:12;;;;;;;;;;;;;;;21.26;53.60;100024.22;5099243;28;19928;-53
2021/08/18 04:34:40;;;;;;;;;;;;;;;21.25;53.36;100022.50;5109155;28;19988;-61
2021/08/18 04:37:08;;;;;;;;;;;;;;;;;;5116103;28;19974;-62
2021/08/18 04:39:37;;;;;;;;;;;;;;;21.25;53.23;100027.88;5101343;28;20111;-56
2021/08/18 04:42:05;;;;;;;;;;;;;;;;;;5095789;28;19928;-61
2021/08/18 04:44:33;;;;;;;;;;;;;;;21.22;52.95;100024.50;5100960;28;19942;-60
2021/08/18 04:47:01;;;;;;;;;;;;;;;21.23;53.32;100025.34;5114492;28;20034;-62
2021/08/18 04:49:29;;;;;;;;;;;;;;;21.22;53.30;100023.63;5103915;28;19927;-61
2021/08/18 04:51:56;;;;;;;;;;;;;;;21.22;53.42;100021.81;5105109;28;19944;-61
2021/08/18 04:54:25;;;;;;;;;;;;;;;21.22;53.36;100023.63;5114833;28;19928;-62
2021/08/18 04:56:54;;;;;;;;;;;;;;;21.22;53.66;100040.63;5108952;28;19932;-62
2021/08/18 04:59:22;;;;;;;;;;;;;;;;;;5099830;28;20019;-61
2021/08/18 05:01:49;;;;;;;;;;;;;;;21.23;53.56;100041.47;5103003;28;19928;-62
2021/08/18 05:04:18;;;;;;;;;;;;;;;21.21;53.33;100035.38;5101421;28;19999;-62
2021/08/18 05:06:46;;;;;;;;;;;;;;;21.22;53.14;100040.63;5101246;28;19939;-62
2021/08/18 05:09:14;;;;;;;;;;;;;;;21.21;53.06;100044.28;5105870;28;19928;-63
2021/08/18 05:11:42;;;;;;;;;;;;;;;21.23;53.63;100050.41;5099779;28;19978;-62
2021/08/18 05:14:11;;;;;;;;;;;;;;;21.27;54.10;100044.75;5106474;28;19999;-57
2021/08/18 05:16:39;;;;;;;;;;;;;;;21.31;54.74;100060.50;5111413;28;19954;-60
2021/08/18 05:19:07;;;;;;;;;;;;;;;21.33;55.46;100049.66;5103135;28;20318;-58
2021/08/18 05:21:35;;;;;;;;;;;;;;;21.34;54.90;100043.25;5100805;28;19927;-56
2021/08/18 05:24:04;;;;;;;;;;;;;;;21.34;54.98;100044.13;5100266;28;19977;-60
2021/08/18 05:26:32;;;;;;;;;;;;;;;21.35;54.51;100044.97;5101180;28;20031;-58
2021/08/18 05:29:00;;;;;;;;;;;;;;;21.35;54.19;100044.97;5113257;28;19954;-57
2021/08/18 05:31:29;;;;;;;;;;;;;;;21.37;55.12;100057.31;5101691;28;19928;-52
2021/08/18 05:33:57;;;;;;;;;;;;;;;21.38;54.59;100056.34;5102828;28;19991;-61
2021/08/18 05:36:25;;;;;;;;;;;;;;;21.40;54.71;100045.44;5101974;28;19935;-59
2021/08/18 05:38:53;;;;;;;;;;;;;;;21.43;54.91;100045.16;5099645;28;19928;-60
2021/08/18 05:41:21;;;;;;;;;;;;;;;21.44;54.56;100051.41;5099428;28;19928;-57
2021/08/18 05:43:49;;;;;;;;;;;;;;;21.46;54.24;100047.63;5102762;28;19934;-62
2021/08/18 05:46:17;;;;;;;;;;;;;;;21.48;54.46;100047.50;5104894;28;19930;-61
2021/08/18 05:48:46;;;;;;;;;;;;;;;21.49;54.88;100046.50;5104678;28;19924;-63
2021/08/18 05:51:14;;;;;;;;;;;;;;;21.48;55.04;100051.03;5103935;28;19954;-63
2021/08/18 05:53:49;;;;;;;;;;;;;;;21.48;54.73;100045.63;5099347;27;19924;-60
2021/08/18 05:56:17;;;;;;;;;;;;;;;21.50;55.34;100056.28;5105351;28;19936;-61
2021/08/18 05:58:45;;;;;;;;;;;;;;;21.51;55.83;100047.22;5105305;28;19938;-60
2021/08/18 06:01:13;;;;;;;;;;;;;;;21.52;56.17;100051.63;5103837;28;20202;-67
2021/08/18 06:03:42;;;;;;;;;;;;;;;21.51;55.94;100050.78;5100898;28;19931;-65
2021/08/18 06:06:13;;;;;;;;;;;;;;;21.51;55.16;100053.47;5096257;28;20012;-66
2021/08/18 06:08:41;;;;;;;;;;;;;;;21.54;55.55;100063.16;5099115;28;19928;-63
2021/08/18 06:11:09;;;;;;;;;;;;;;;21.55;55.65;100056.75;5105830;28;20690;-66
2021/08/18 06:13:37;;;;;;;;;;;;;;;21.55;55.73;100063.00;5103417;28;20431;-66
2021/08/18 06:16:05;;;;;;;;;;;;;;;21.57;56.16;100070.94;5099218;28;19996;-64
2021/08/18 06:18:33;;;;;;;;;;;;;;;21.55;55.73;100065.72;5109850;28;20683;-64
2021/08/18 06:21:01;;;;;;;;;;;;;;;21.54;55.55;100069.38;5101046;28;19928;-64
2021/08/18 06:23:32;;;;;;;;;;;;;;;21.55;55.74;100075.59;5098467;28;19961;-63
2021/08/18 06:26:00;;;;;;;;;;;;;;;21.55;55.44;100067.53;5097769;28;20384;-63
2021/08/18 06:28:28;;;;;;;;;;;;;;;21.54;55.28;100068.53;5099568;28;19992;-63
2021/08/18 06:30:57;;;;;;;;;;;;;;;21.52;54.68;100079.41;5102798;28;20002;-63
2021/08/18 06:33:25;;;;;;;;;;;;;;;21.52;54.32;100078.53;5112492;28;19928;-62
2021/08/18 06:35:53;;;;;;;;;;;;;;;21.50;54.55;100069.75;5105581;28;19924;-62
2021/08/18 06:38:21;;;;;;;;;;;;;;;21.50;54.26;100072.44;5107753;28;19931;-62
2021/08/18 06:40:50;;;;;;;;;;;;;;;21.49;54.21;100074.25;5110732;28;19935;-62
2021/08/18 06:43:18;;;;;;;;;;;;;;;21.49;53.80;100078.78;5103343;28;19928;-61
2021/08/18 06:45:46;;;;;;;;;;;;;;;21.48;54.16;100077.09;5107897;28;20307;-60
2021/08/18 06:48:14;;;;;;;;;;;;;;;21.47;53.91;100081.63;5105767;28;20372;-62
2021/08/18 06:50:43;;;;;;;;;;;;;;;21.48;54.11;100075.22;5103976;28;19928;-63
2021/08/18 06:53:10;;;;;;;;;;;;;;;21.49;54.08;100081.50;5117695;28;19923;-60
2021/08/18 06:55:38;;;;;;;;;;;;;;;21.49;53.68;100071.56;5121762;28;20010;-62
2021/08/18 06:58:08;;;;;;;;;;;;;;;21.48;53.71;100066.31;5107698;28;19950;-62
2021/08/18 07:00:35;;;;;;;;;;;;;;;21.48;53.72;100061.78;5110135;28;20046;-63
2021/08/18 07:03:04;;;;;;;;;;;;;;;21.48;54.08;100069.84;5100641;28;19928;-62
2021/08/18 07:05:34;;;;;;;;;;;;;;;21.48;54.33;100075.22;5101992;28;19924;-63
2021/08/18 07:08:02;;;;;;;;;;;;;;;21.47;53.91;100070.84;5110922;28;19931;-63
2021/08/18 07:10:30;;;;;;;;;;;;;;;21.49;54.23;100073.41;5115765;28;19981;-63
2021/08/18 07:12:58;;;;;;;;;;;;;;;21.50;54.24;100073.28;5102007;28;19935;-63
2021/08/18 07:15:27;;;;;;;;;;;;;;;21.49;53.86;100068.03;5108312;28;19932;-60
2021/08/18 07:17:55;;;;;;;;;;;;;;;21.50;53.93;100069.75;5106687;28;19924;-62
2021/08/18 07:20:23;;;;;;;;;;;;;;;21.50;54.06;100064.38;5111232;28;20022;-62
2021/08/18 07:22:51;;;;;;;;;;;;;;;21.50;54.03;100069.75;5121281;28;19939;-63
2021/08/18 07:25:19;;;;;;;;;;;;;;;21.49;53.64;100071.56;5117954;28;19938;-62
2021/08/18 07:27:47;;;;;;;;;;;;;;;21.48;53.58;100077.94;5121084;28;19928;-63
2021/08/18 07:30:15;;;;;;;;;;;;;;;21.48;53.65;100071.69;5110419;28;20184;-61
2021/08/18 07:32:44;;;;;;;;;;;;;;;21.50;54.00;100075.97;5111512;28;20425;-63
2021/08/18 07:35:13;;;;;;;;;;;;;;;21.51;53.20;100079.50;5104310;28;19928;-63
2021/08/18 07:37:41;;;;;;;;;;;;;;;21.49;53.82;100076.94;5108639;28;19939;-63
2021/08/18 07:40:09;;;;;;;;;;;;;;;21.48;53.93;100077.94;5112903;28;19931;-62
2021/08/18 07:42:37;;;;;;;;;;;;;;;21.48;54.16;100077.94;5118440;28;19928;-62
2021/08/18 07:45:06;;;;;;;;;;;;;;;21.47;54.29;100081.63;5102255;28;20007;-62
2021/08/18 07:47:34;;;;;;;;;;;;;;;21.48;54.14;100080.63;5116244;28;19923;-62
2021/08/18 07:50:05;;;;;;;;;;;;;;;21.47;53.65;100078.94;5104978;28;20740;-62
2021/08/18 07:52:33;;;;;;;;;;;;;;;21.48;53.81;100069.84;5115199;28;19981;-60
2021/08/18 07:55:01;;;;;;;;;;;;;;;21.49;53.95;100076.94;5101424;28;20395;-63
2021/08/18 07:57:29;;;;;;;;;;;;;;;21.49;53.50;100076.94;5102442;28;19930;-62
2021/08/18 07:59:57;;;;;;;;;;;;;;;21.49;53.57;100068.03;5101028;28;19928;-63
2021/08/18 08:02:25;;;;;;;;;;;;;;;21.50;54.04;100073.28;5109755;28;19934;-63
2021/08/18 08:04:56;;;;;;;;;;;;;;;21.51;53.51;100069.63;5106400;28;19954;-63
2021/08/18 08:07:25;;;;;;;;;;;;;;;21.54;53.44;100065.84;5107208;28;19927;-62
2021/08/18 08:09:53;;;;;;;;;;;;;;;21.57;53.40;100076.34;5120527;28;19928;-63
2021/08/18 08:12:21;;;;;;;;;;;;;;;21.59;53.16;100068.13;5117520;28;19945;-63
2021/08/18 08:14:49;;;;;;;;;;;;;;;21.58;53.82;100067.28;5111648;28;20466;-62
2021/08/18 08:17:17;;;;;;;;;;;;;;;21.64;52.96;100063.22;5111895;28;19955;-62
2021/08/18 08:19:45;;;;;;;;;;;;;;;21.63;52.64;100066.88;5114163;28;20070;-62
2021/08/18 08:22:13;;;;;;;;;;;;;;;21.60;53.00;100076.06;5104602;28;19944;-63
2021/08/18 08:24:42;;;;;;;;;;;;;;;21.59;52.96;100081.59;5105922;28;19930;-63
2021/08/18 08:27:10;;;;;;;;;;;;;;;21.57;52.98;100070.94;5099991;28;20008;-62
2021/08/18 08:29:38;;;;;;;;;;;;;;;21.59;52.97;100073.50;5098723;28;20010;-61
2021/08/18 08:32:06;;;;;;;;;;;;;;;21.59;52.68;100070.81;5110269;28;19928;-62
2021/08/18 08:34:34;;;;;;;;;;;;;;;21.60;52.90;100061.78;5112082;28;19981;-61
2021/08/18 08:37:02;;;;;;;;;;;;;;;21.62;52.64;100071.41;5113183;28;20010;-62
2021/08/18 08:39:30;;;;;;;;;;;;;;;21.65;52.47;100081.91;5118987;28;19928;-62
2021/08/18 08:42:00;;;;;;;;;;;;;;;21.65;52.61;100070.31;5114592;28;19924;-62
2021/08/18 08:44:28;;;;;;;;;;;;;;;21.67;52.62;100068.34;5101993;27;19924;-62
2021/08/18 08:46:56;;;;;;;;;;;;;;;21.68;53.59;100075.41;5111191;28;19980;-63
2021/08/18 08:49:24;;;;;;;;;;;;;;;21.69;53.27;100072.59;5116750;28;19981;-63
2021/08/18 08:51:54;;;;;;;;;;;;;;;21.71;52.91;100067.94;5114159;27;19924;-62
2021/08/18 08:54:22;;;;;;;;;;;;;;;21.75;52.86;100071.25;5113231;27;19924;-62
2021/08/18 08:56:50;;;;;;;;;;;;;;;21.79;52.68;100067.28;5103574;28;19928;-61
2021/08/18 08:59:20;;;;;;;;;;;;;;;21.83;52.63;100068.75;5110665;28;19939;-61
2021/08/18 09:02:03;;;;;;;;;;;;;;;21.90;52.64;100063.69;5112377;28;20023;-62
2021/08/18 09:04:32;;;;;;;;;;;;;;;21.86;52.78;100068.47;5103789;28;19966;-63
2021/08/18 09:07:04;;;;;;;;;;;;;;;21.89;52.91;100061.97;5102092;28;19989;-62
2021/08/18 09:09:33;;;;;;;;;;;;;;;21.78;53.28;100070.13;5109067;28;19969;-63
2021/08/18 09:12:08;;;;;;;;;;;;;;;21.74;53.61;100071.38;5115901;28;19943;-63
2021/08/18 09:14:38;;;;;;;;;;;;;;;21.72;53.28;100075.03;5109657;28;19930;-62
2021/08/18 09:17:24;;;;;;;;;;;;;;;21.74;52.95;100066.00;5116638;28;19928;-58
2021/08/18 09:19:57;;;;;;;;;;;;;;;21.71;53.44;100070.63;5117913;28;20012;-59
2021/08/18 09:22:25;;;;;;;;;;;;;;;21.74;53.27;100071.38;5111108;28;20488;-60
2021/08/18 09:25:07;;;;;;;;;;;;;;;21.79;52.98;100074.53;5105960;28;20376;-59
2021/08/18 09:27:35;;;;;;;;;;;;;;;21.78;53.08;100070.97;5145595;27;20097;-60
2021/08/18 09:30:05;;;;;;;;;;;;;;;21.78;53.59;100072.81;5112128;28;19985;-59
2021/08/18 09:32:36;;;;;;;;;;;;;;;21.77;53.50;100074.63;5104421;28;19924;-60
2021/08/18 09:35:19;;;;;;;;;;;;;;;21.78;53.46;100081.72;5104102;28;19938;-62
2021/08/18 09:37:54;;;;;;;;;;;;;;;21.77;53.63;100080.03;5096160;28;19939;-62
2021/08/18 09:40:23;;;;;;;;;;;;;;;21.83;53.48;100073.28;5101620;28;19991;-63
2021/08/18 09:42:51;;;;;;;;;;;;;;;21.81;53.38;100070.69;5105895;28;19946;-63
2021/08/18 09:45:25;;;;;;;;;;;;;;;21.84;53.50;100064.19;5103364;28;19924;-62
2021/08/18 09:47:55;;;;;;;;;;;;;;;21.80;53.31;100060.06;5104302;28;19934;-63
2021/08/18 09:50:24;;;;;;;;;;;;;;;21.73;53.51;100057.03;5111849;28;20054;-62
2021/08/18 09:52:53;;;;;;;;;;;;;;;21.70;52.88;100051.94;5104069;28;20370;-63
2021/08/18 09:55:22;;;;;;;;;;;;;;;21.67;53.64;100053.06;5114550;28;19934;-62
2021/08/18 09:57:51;;;;;;;;;;;;;;;21.68;53.43;100054.75;5103055;28;19981;-62
2021/08/18 10:00:19;;;;;;;;;;;;;;;21.67;53.80;100046.81;5106031;28;19939;-62
2021/08/18 10:02:49;;;;;;;;;;;;;;;21.65;53.99;100055.00;5099554;28;19925;-62
2021/08/18 10:05:18;;;;;;;;;;;;;;;21.64;54.15;100047.94;5106086;28;19981;-62
2021/08/18 10:07:46;;;;;;;;;;;;;;;21.63;54.12;100057.00;5095157;28;19954;-61
2021/08/18 10:10:14;;;;;;;;;;;;;;;21.66;54.01;100048.66;5110914;28;19924;-62
2021/08/18 10:12:42;;;;;;;;;;;;;;;21.68;53.85;100057.44;5105977;28;19985;-62
2021/08/18 10:15:11;;;;;;;;;;;;;;;21.69;54.00;100055.59;5114431;28;19924;-62
2021/08/18 10:17:40;;;;;;;;;;;;;;;21.70;53.87;100054.63;5111228;28;20036;-62
2021/08/18 10:20:10;;;;;;;;;;;;;;;21.69;53.91;100056.44;5093582;28;19932;-63
2021/08/18 10:22:39;;;;;;;;;;;;;;;21.69;53.68;100052.91;5113172;28;19931;-63
2021/08/18 10:25:25;;;;;;;;;;;;;;;21.69;53.67;100047.53;5112467;28;19928;-62
2021/08/18 10:27:53;;;;;;;;;;;;;;;21.66;53.80;100051.34;5100078;28;20433;-61
2021/08/18 10:30:21;;;;;;;;;;;;;;;21.64;53.83;100047.06;5115597;28;19958;-61
2021/08/18 10:32:49;;;;;;;;;;;;;;;21.63;53.75;100050.72;5102606;28;19935;-62
2021/08/18 10:35:36;;;;;;;;;;;;;;;21.68;53.86;100045.81;5103989;28;19951;-62
2021/08/18 10:38:19;;;;;;;;;;;;;;;21.69;53.91;100037.59;5114326;28;19927;-62
2021/08/18 10:40:48;;;;;;;;;;;;;;;21.80;53.75;100031.31;5098965;28;19930;-62
2021/08/18 10:43:32;;;;;;;;;;;;;;;21.97;53.31;100040.63;5098750;28;19928;-62
2021/08/18 10:45:59;;;;;;;;;;;;;;;21.85;53.48;100034.47;5102124;28;19962;-63
2021/08/18 10:48:46;;;;;;;;;;;;;;;21.79;53.51;100032.31;5111801;28;20405;-62
2021/08/18 10:51:40;;;;;;;;;;;;;;;21.84;53.56;100039.97;5104883;28;19927;-62
2021/08/18 10:54:29;;;;;;;;;;;;;;;21.79;53.41;100026.91;5109158;28;19939;-62
2021/08/18 10:57:00;;;;;;;;;;;;;;;21.80;53.42;100039.41;5098672;28;19961;-62
2021/08/18 10:59:46;;;;;;;;;;;;;;;21.81;52.84;100046.47;5100766;28;19974;-62
2021/08/18 11:02:30;;;;;;;;;;;;;;;21.83;53.08;100039.13;5093391;28;19928;-61
2021/08/18 11:05:12;;;;;;;;;;;;;;;21.85;53.00;100033.59;5110936;28;19928;-62
2021/08/18 11:07:55;;;;;;;;;;;;;;;21.87;52.97;100034.34;5114903;28;20557;-63
2021/08/18 11:10:23;;;;;;;;;;;;;;;21.83;53.31;100035.59;5118418;28;19934;-62
2021/08/18 11:12:55;;;;;;;;;;;;;;;21.80;53.39;100044.78;5104922;28;20384;-64
2021/08/18 11:15:42;;;;;;;;;;;;;;;21.78;53.75;100043.22;5096412;28;19973;-60
2021/08/18 11:18:11;;;;;;;;;;;;;;;21.76;54.17;100035.28;5106482;28;20026;-61
2021/08/18 11:20:38;;;;;;;;;;;;;;;21.77;54.31;100031.56;5115499;28;19935;-63
2021/08/18 11:23:07;;;;;;;;;;;;;;;21.79;54.41;100040.38;5098642;28;20043;-61
2021/08/18 11:25:41;;;;;;;;;;;;;;;21.87;54.47;100032.47;5101622;28;19924;-61
2021/08/18 11:28:19;;;;;;;;;;;;;;;21.94;53.82;100026.56;5097232;28;19999;-63
2021/08/18 11:30:55;;;;;;;;;;;;;;;21.92;54.18;100026.72;5112366;28;19924;-62
2021/08/18 11:33:24;;;;;;;;;;;;;;;21.91;54.30;100021.47;5122394;28;19932;-59
2021/08/18 11:35:59;;;;;;;;;;;;;;;21.92;53.92;100023.16;5108881;28;19928;-65
2021/08/18 11:38:27;;;;;;;;;;;;;;;21.92;54.20;100039.31;5109229;27;19987;-63
2021/08/18 11:40:55;;;;;;;;;;;;;;;21.94;54.35;100030.09;5110536;28;19924;-66
2021/08/18 11:43:38;;;;;;;;;;;;;;;21.98;54.59;100033.41;5115835;28;19981;-68
2021/08/18 11:46:06;;;;;;;;;;;;;;;21.98;54.55;100030.72;5108471;28;20463;-66
2021/08/18 11:48:34;;;;;;;;;;;;;;;22.00;54.38;100045.75;5117379;28;19927;-66
2021/08/18 11:51:03;;;;;;;;;;;;;;;22.03;54.36;100041.94;5106785;28;19928;-66
2021/08/18 11:53:31;;;;;;;;;;;;;;;22.05;54.24;100035.44;5113834;28;19932;-66
2021/08/18 11:56:01;;;;;;;;;;;;;;;21.36;55.93;100035.94;5097644;28;19932;-69
2021/08/18 11:58:32;;;;;;;;;;;;;;;20.50;57.34;100033.94;5103826;28;19924;-65
2021/08/18 12:01:03;;;;;;;;;;;;;;;19.99;57.26;100035.25;5109792;27;19928;-65
2021/08/18 12:03:32;;;;;;;;;;;;;;;20.60;52.40;100025.97;5107521;28;19928;-66
2021/08/18 12:06:04;;;;;;;;;;;;;;;20.51;51.16;100024.03;5104449;28;20101;-66
2021/08/18 12:08:39;;;;;;;;;;;;;;;20.29;50.50;100032.94;5100783;28;19932;-65
2021/08/18 12:11:08;;;;;;;;;;;;;;;20.13;49.26;100027.94;5098505;28;19927;-65
2021/08/18 12:13:41;;;;;;;;;;;;;;;19.94;48.56;100026.69;5099511;28;19924;-66
2021/08/18 12:16:27;;;;;;;;;;;;;;;19.92;49.92;100027.78;5101757;28;20205;-66
2021/08/18 12:19:10;;;;;;;;;;;;;;;20.04;50.59;100030.38;5100564;28;19930;-66
2021/08/18 12:21:38;;;;;;;;;;;;;;;20.01;50.75;100030.59;5113247;28;19927;-66
2021/08/18 12:24:09;;;;;;;;;;;;;;;19.82;49.19;100019.63;5116739;28;19997;-66
2021/08/18 12:26:38;;;;;;;;;;;;;;;19.58;48.57;100023.19;5105523;28;19955;-66
2021/08/18 12:29:07;;;;;;;;;;;;;;;19.51;47.84;100030.84;5106505;28;19997;-68
2021/08/18 12:31:56;;;;;;;;;;;;;;;19.54;47.22;100032.44;5109191;28;19955;-63
2021/08/18 12:34:32;;;;;;;;;;;;;;;19.46;46.55;100038.38;5100883;28;20034;-58
2021/08/18 12:37:01;;;;;;;;;;;;;;;19.36;46.66;100040.06;5111000;28;19956;-60
2021/08/18 12:39:30;;;;;;;;;;;;;;;19.32;46.42;100041.25;5097902;28;20012;-57
2021/08/18 12:41:58;;;;;;;;;;;;;;;19.46;48.55;100037.53;5096975;28;19924;-52
2021/08/18 12:44:30;;;;;;;;;;;;;;;19.53;48.83;100036.09;5104153;28;19928;-55
2021/08/18 12:47:10;;;;;;;;;;;;;;;19.53;48.20;100028.91;5101595;28;19930;-57
2021/08/18 12:49:46;;;;;;;;;;;;;;;19.27;47.38;100030.03;5097955;28;19928;-56
2021/08/18 12:52:15;;;;;;;;;;;;;;;19.17;46.76;100033.38;5098309;28;19988;-57
2021/08/18 12:54:42;;;;;;;;;;;;;;;19.21;47.70;100034.00;5104307;27;19945;-55